Time;durP1;ratioP1;P1;durP2;ratioP2;P2;SDS_P1;SDS_P2;PMS_P1;PMS_P2;Temp;Humidity;BMP_temperature;BMP_pressure;BME280_temperature;BME280_humidity;BME280_pressure;Samples;Min_cycle;Max_cycle;Signal;HPM_P1;HPM_P2
2023/08/26 00:02:13;;;;;;;0.20;0.20;;;;;;;15.69;100.00;99778.84;5006581;28;20037;-60
2023/08/26 00:04:38;;;;;;;0.40;0.40;;;;;;;15.81;100.00;99794.09;5021626;28;20053;-60
2023/08/26 00:07:04;;;;;;;0.30;0.30;;;;;;;15.78;100.00;99791.59;5006635;28;20026;-61
2023/08/26 00:09:29;;;;;;;1.08;1.00;;;;;;;15.80;100.00;99786.28;5006708;28;20030;-60
2023/08/26 00:11:55;;;;;;;1.25;1.25;;;;;;;15.74;100.00;99779.53;5006904;28;20045;-61
2023/08/26 00:14:20;;;;;;;0.30;0.30;;;;;;;15.76;100.00;99763.75;5006539;28;20026;-61
2023/08/26 00:16:45;;;;;;;0.35;0.35;;;;;;;15.80;100.00;99766.19;5006289;28;20118;-60
2023/08/26 00:19:11;;;;;;;1.25;1.15;;;;;;;15.76;100.00;99772.47;5006153;28;20069;-59
2023/08/26 00:21:37;;;;;;;6.93;2.67;;;;;;;15.78;100.00;99780.25;5006430;28;20022;-60
2023/08/26 00:24:03;;;;;;;0.50;0.50;;;;;;;15.79;100.00;99785.44;5006509;28;20034;-61
2023/08/26 00:26:29;;;;;;;0.55;0.55;;;;;;;15.78;100.00;99781.13;5006318;28;20022;-60
2023/08/26 00:28:55;;;;;;;1.55;0.73;;;;;;;15.80;100.00;99781.88;5006523;28;20030;-61
2023/08/26 00:31:22;;;;;;;0.47;0.47;;;;;;;15.74;100.00;99779.53;5021657;28;20094;-61
2023/08/26 00:33:47;;;;;;;0.73;0.73;;;;;;;15.73;100.00;99783.06;5005955;28;20030;-60
2023/08/26 00:36:13;;;;;;;0.60;0.60;;;;;;;15.68;100.00;99790.25;5005990;28;20094;-60
2023/08/26 00:38:38;;;;;;;0.98;0.98;;;;;;;15.68;100.00;99790.25;5006423;28;20026;-60
2023/08/26 00:41:03;;;;;;;0.20;0.20;;;;;;;15.68;100.00;99788.50;5006337;28;20026;-61
2023/08/26 00:43:29;;;;;;;0.32;0.32;;;;;;;15.64;100.00;99786.88;5006245;28;20042;-60
2023/08/26 00:45:54;;;;;;;0.28;0.28;;;;;;;15.68;100.00;99775.41;5006066;28;20072;-60
2023/08/26 00:48:20;;;;;;;0.65;0.65;;;;;;;15.69;100.00;99771.88;5005778;28;20111;-60
2023/08/26 00:50:48;;;;;;;0.20;0.20;;;;;;;15.67;100.00;99755.38;5005483;28;20022;-60
2023/08/26 00:53:16;;;;;;;1.95;1.85;;;;;;;15.69;100.00;99765.75;5006232;28;20090;-61
2023/08/26 00:55:43;;;;;;;0.32;0.32;;;;;;;15.73;100.00;99767.38;5005826;28;20052;-61
2023/08/26 00:58:09;;;;;;;0.30;0.30;;;;;;;15.71;100.00;99777.03;5005693;28;20031;-61
2023/08/26 01:00:39;;;;;;;0.22;0.22;;;;;;;15.69;100.00;99794.56;5005631;28;20024;-61
2023/08/26 01:03:05;;;;;;;0.70;0.70;;;;;;;15.67;100.00;99797.22;5005867;28;20113;-61
2023/08/26 01:05:31;;;;;;;0.20;0.20;;;;;;;15.64;100.00;99781.66;5005658;28;20073;-60
2023/08/26 01:07:59;;;;;;;0.30;0.30;;;;;;;15.68;100.00;99777.16;5005843;28;20010;-61
2023/08/26 01:10:33;;;;;;;0.35;0.35;;;;;;;15.67;100.00;99775.47;5005914;28;20085;-62
2023/08/26 01:13:06;;;;;;;0.30;0.30;;;;;;;15.63;100.00;99764.25;5005757;28;20121;-60
2023/08/26 01:15:34;;;;;;;0.20;0.20;;;;;;;15.61;100.00;99753.84;5005499;28;20034;-61
2023/08/26 01:18:05;;;;;;;0.38;0.38;;;;;;;15.57;100.00;99741.81;5005510;28;20026;-61
2023/08/26 01:20:31;;;;;;;4.40;2.87;;;;;;;15.60;100.00;99727.75;5005635;28;20101;-61
2023/08/26 01:22:59;;;;;;;0.20;0.20;;;;;;;15.60;100.00;99733.84;5005612;28;20073;-61
2023/08/26 01:25:25;;;;;;;0.50;0.50;;;;;;;15.60;100.00;99730.38;5005741;28;20022;-61
2023/08/26 01:27:51;;;;;;;0.30;0.30;;;;;;;15.60;100.00;99725.13;5005574;28;20023;-61
2023/08/26 01:30:18;;;;;;;0.25;0.25;;;;;;;15.61;100.00;99738.16;5005609;28;20082;-61
2023/08/26 01:33:25;;;;;;;0.20;0.20;;;;;;;15.61;100.00;99743.38;5005353;28;20048;-61
2023/08/26 01:35:58;;;;;;;0.75;0.75;;;;;;;15.61;100.00;99730.31;4996620;28;20034;-61
2023/08/26 01:38:25;;;;;;;0.20;0.20;;;;;;;15.67;100.00;99749.31;5005631;28;20058;-61
2023/08/26 01:40:56;;;;;;;1.15;1.15;;;;;;;15.70;100.00;99759.63;5005784;28;20030;-61
2023/08/26 01:43:22;;;;;;;0.40;0.40;;;;;;;15.65;100.00;99753.72;5005538;28;20029;-62
2023/08/26 01:45:48;;;;;;;0.40;0.40;;;;;;;15.58;100.00;99753.97;5005419;28;20034;-61
2023/08/26 01:48:13;;;;;;;1.38;1.38;;;;;;;15.59;100.00;99758.28;5005521;28;20102;-60
2023/08/26 01:50:39;;;;;;;0.20;0.20;;;;;;;15.62;100.00;99739.03;5005439;28;20018;-61
2023/08/26 01:53:05;;;;;;;2.55;1.02;;;;;;;15.63;100.00;99745.94;5005245;28;20035;-60
2023/08/26 01:55:30;;;;;;;0.73;0.73;;;;;;;15.65;100.00;99748.50;5005412;28;20026;-62
2023/08/26 01:57:55;;;;;;;0.20;0.20;;;;;;;15.69;100.00;99740.47;5005199;28;20037;-60
2023/08/26 02:00:21;;;;;;;0.20;0.20;;;;;;;15.72;100.00;99745.56;5006312;28;20022;-60
2023/08/26 02:02:46;;;;;;;0.20;0.20;;;;;;;15.75;100.00;99744.59;5009199;28;20019;-61
2023/08/26 02:05:12;;;;;;;0.20;0.20;;;;;;;15.75;100.00;99744.59;5009167;28;20026;-61
2023/08/26 02:07:37;;;;;;;0.20;0.20;;;;;;;15.79;100.00;99742.69;5009113;28;20295;-59
2023/08/26 02:10:03;;;;;;;0.20;0.20;;;;;;;15.79;100.00;99740.94;5009112;28;20328;-61
2023/08/26 02:12:29;;;;;;;0.40;0.40;;;;;;;15.79;100.00;99740.94;5009295;28;20037;-60
2023/08/26 02:14:54;;;;;;;0.22;0.22;;;;;;;15.74;100.00;99741.13;5009289;28;20046;-60
2023/08/26 02:17:19;;;;;;;0.20;0.20;;;;;;;15.72;100.00;99742.09;5009320;28;20030;-60
2023/08/26 02:19:45;;;;;;;0.20;0.20;;;;;;;15.71;100.00;99748.25;5008912;28;20026;-60
2023/08/26 02:22:10;;;;;;;0.30;0.30;;;;;;;15.69;100.00;99752.69;5009171;28;20058;-60
2023/08/26 02:24:36;;;;;;;0.20;0.20;;;;;;;15.67;100.00;99752.75;5009091;28;20105;-60
2023/08/26 02:27:01;;;;;;;0.20;0.20;;;;;;;15.66;100.00;99747.56;5008958;28;20050;-60
2023/08/26 02:29:27;;;;;;;0.20;0.20;;;;;;;15.63;100.00;99738.09;5009226;28;20459;-59
2023/08/26 02:31:52;;;;;;;0.30;0.30;;;;;;;15.64;100.00;99745.03;5008744;28;20026;-61
2023/08/26 02:34:18;;;;;;;0.30;0.30;;;;;;;15.63;100.00;99735.47;5008962;28;20033;-61
2023/08/26 02:36:43;;;;;;;0.20;0.20;;;;;;;15.63;100.00;99730.25;5008495;28;20077;-60
2023/08/26 02:39:08;;;;;;;0.20;0.20;;;;;;;15.61;100.00;99721.59;5009084;28;20491;-59
2023/08/26 02:41:34;;;;;;;0.40;0.40;;;;;;;15.57;100.00;99715.66;5008796;28;20026;-60
2023/08/26 02:44:00;;;;;;;0.55;0.55;;;;;;;15.55;100.00;99712.25;5008792;28;20072;-59
2023/08/26 02:46:25;;;;;;;0.20;0.20;;;;;;;15.50;100.00;99693.25;5007159;28;20014;-59
2023/08/26 02:48:51;;;;;;;0.32;0.32;;;;;;;15.48;100.00;99687.22;5008506;28;20030;-60
2023/08/26 02:51:16;;;;;;;0.20;0.20;;;;;;;15.47;100.00;99693.38;5008354;28;20097;-60
2023/08/26 02:53:42;;;;;;;0.30;0.30;;;;;;;15.47;100.00;99703.84;5008545;28;20108;-60
2023/08/26 02:56:07;;;;;;;0.20;0.20;;;;;;;15.45;100.00;99700.44;5008228;28;20034;-60
2023/08/26 02:58:33;;;;;;;0.20;0.20;;;;;;;15.43;100.00;99702.28;5008317;28;20153;-60
2023/08/26 03:01:01;;;;;;;0.20;0.20;;;;;;;15.40;100.00;99703.25;5008507;28;20033;-60
2023/08/26 03:03:27;;;;;;;0.55;0.55;;;;;;;15.38;100.00;99706.84;5008327;28;20028;-60
2023/08/26 03:05:57;;;;;;;0.20;0.20;;;;;;;15.36;100.00;99713.00;5008028;28;20058;-61
2023/08/26 03:08:23;;;;;;;0.30;0.30;;;;;;;15.36;100.00;99718.22;5008236;28;20137;-60
2023/08/26 03:11:03;;;;;;;0.30;0.30;;;;;;;15.36;100.00;99718.22;5008171;28;20054;-60
2023/08/26 03:13:29;;;;;;;0.75;0.75;;;;;;;15.36;100.00;99714.75;5007291;28;20589;-60
2023/08/26 03:15:56;;;;;;;0.30;0.30;;;;;;;15.29;100.00;99695.81;5007693;28;20054;-59
2023/08/26 03:18:22;;;;;;;0.30;0.30;;;;;;;15.25;100.00;99691.63;5008154;28;20080;-60
2023/08/26 03:20:47;;;;;;;0.20;0.20;;;;;;;15.17;100.00;99694.56;5007686;28;20031;-60
2023/08/26 03:23:13;;;;;;;0.20;0.20;;;;;;;15.22;100.00;99700.44;5008187;28;20033;-60
2023/08/26 03:25:40;;;;;;;0.20;0.20;;;;;;;15.26;100.00;99708.16;5007867;28;20038;-59
2023/08/26 03:28:08;;;;;;;0.50;0.50;;;;;;;15.24;100.00;99697.75;5008042;28;20026;-60
2023/08/26 03:30:36;;;;;;;0.55;0.55;;;;;;;15.22;100.00;99697.81;5007893;28;20072;-60
2023/08/26 03:33:02;;;;;;;0.52;0.52;;;;;;;15.24;100.00;99706.47;5007847;28;20081;-60
2023/08/26 03:35:27;;;;;;;0.20;0.20;;;;;;;15.24;100.00;99703.84;5007685;28;20023;-60
2023/08/26 03:37:53;;;;;;;1.08;0.75;;;;;;;15.30;100.00;99709.75;5007750;28;20026;-61
2023/08/26 03:40:22;;;;;;;0.30;0.30;;;;;;;15.24;100.00;99703.84;5007721;28;20033;-60
2023/08/26 03:42:51;;;;;;;0.50;0.50;;;;;;;15.24;100.00;99697.75;5007680;28;20023;-61
2023/08/26 03:45:16;;;;;;;0.28;0.28;;;;;;;15.21;100.00;99690.03;5007545;28;20026;-60
2023/08/26 03:47:42;;;;;;;0.40;0.40;;;;;;;15.19;100.00;99700.56;5007377;28;20033;-60
2023/08/26 03:50:08;;;;;;;0.30;0.30;;;;;;;15.20;100.00;99704.03;5007213;28;20049;-61
2023/08/26 03:52:33;;;;;;;0.30;0.30;;;;;;;15.24;100.00;99708.22;5007404;28;20105;-59
2023/08/26 03:54:59;;;;;;;0.30;0.30;;;;;;;15.22;100.00;99695.22;5007389;28;20486;-61
2023/08/26 03:57:24;;;;;;;0.20;0.20;;;;;;;15.23;100.00;99699.53;5006951;28;20090;-59
2023/08/26 03:59:49;;;;;;;0.20;0.20;;;;;;;15.24;100.00;99703.00;5007297;28;20085;-61
2023/08/26 04:02:15;;;;;;;0.30;0.30;;;;;;;15.28;100.00;99704.59;5007510;28;20034;-61
2023/08/26 04:04:40;;;;;;;0.45;0.45;;;;;;;15.27;100.00;99707.28;5006689;28;20029;-60
2023/08/26 04:07:05;;;;;;;0.20;0.20;;;;;;;15.31;100.00;99706.22;5006629;28;20030;-60
2023/08/26 04:09:31;;;;;;;0.20;0.20;;;;;;;15.32;100.00;99695.69;5007091;28;20030;-61
2023/08/26 04:11:56;;;;;;;0.57;0.57;;;;;;;15.31;100.00;99699.25;5006547;28;20033;-61
2023/08/26 04:14:22;;;;;;;0.20;0.20;;;;;;;15.33;100.00;99688.72;5006547;28;20098;-61
2023/08/26 04:16:47;;;;;;;0.20;0.20;;;;;;;15.29;100.00;99687.97;5006846;28;20054;-62
2023/08/26 04:19:14;;;;;;;0.30;0.30;;;;;;;15.31;100.00;99703.59;5006667;28;20022;-62
2023/08/26 04:21:39;;;;;;;0.30;0.30;;;;;;;15.32;100.00;99711.38;5006923;28;20099;-62
2023/08/26 04:24:05;;;;;;;0.68;0.68;;;;;;;15.32;100.00;99700.94;5007115;28;20034;-61
2023/08/26 04:26:30;;;;;;;0.25;0.25;;;;;;;15.34;100.00;99699.13;5006889;28;20486;-61
2023/08/26 04:28:55;;;;;;;0.20;0.20;;;;;;;15.36;100.00;99701.66;5006587;28;20108;-61
2023/08/26 04:31:21;;;;;;;0.20;0.20;;;;;;;15.36;100.00;99701.66;5006595;28;20072;-61
2023/08/26 04:33:48;;;;;;;0.30;0.30;;;;;;;15.36;100.00;99707.75;5006097;28;20058;-61
2023/08/26 04:36:13;;;;;;;0.20;0.20;;;;;;;15.33;100.00;99696.56;5004566;28;20026;-61
2023/08/26 04:38:40;;;;;;;2.72;1.30;;;;;;;15.39;100.00;99713.75;5005324;28;20104;-61
2023/08/26 04:41:06;;;;;;;0.38;0.38;;;;;;;15.36;100.00;99713.00;5006425;28;20023;-61
2023/08/26 04:43:31;;;;;;;0.30;0.30;;;;;;;15.34;100.00;99691.28;5006520;28;20478;-60
2023/08/26 04:45:56;;;;;;;0.30;0.30;;;;;;;15.36;100.00;99701.66;5004853;28;20094;-61
2023/08/26 04:48:22;;;;;;;1.80;1.38;;;;;;;15.38;100.00;99701.59;5006193;28;20078;-61
2023/08/26 04:50:47;;;;;;;0.50;0.50;;;;;;;15.41;100.00;99693.63;5006237;28;20023;-62
2023/08/26 04:53:13;;;;;;;16.27;3.05;;;;;;;15.35;100.00;99692.97;5006160;28;20030;-60
2023/08/26 04:55:38;;;;;;;0.20;0.20;;;;;;;15.40;100.00;99695.41;5005545;28;20117;-60
2023/08/26 04:58:07;;;;;;;0.40;0.40;;;;;;;15.41;100.00;99694.50;5005974;28;20486;-61
2023/08/26 05:00:33;;;;;;;0.20;0.20;;;;;;;15.42;100.00;99696.19;5021173;28;20038;-60
2023/08/26 05:02:58;;;;;;;0.20;0.20;;;;;;;15.44;100.00;99697.00;5006231;28;20034;-61
2023/08/26 05:05:23;;;;;;;0.20;0.20;;;;;;;15.38;100.00;99689.41;5005757;28;20104;-61
2023/08/26 05:07:49;;;;;;;0.20;0.20;;;;;;;15.47;100.00;99688.16;5006010;28;20434;-60
2023/08/26 05:10:14;;;;;;;0.20;0.20;;;;;;;15.50;100.00;99690.66;5006235;28;20054;-61
2023/08/26 05:12:40;;;;;;;0.20;0.20;;;;;;;15.51;100.00;99694.13;5005830;28;20459;-61
2023/08/26 05:15:06;;;;;;;2.53;1.15;;;;;;;15.47;100.00;99686.41;5020970;28;20049;-60
2023/08/26 05:17:31;;;;;;;0.93;0.93;;;;;;;15.60;100.00;99701.59;5006059;28;20026;-60
2023/08/26 05:19:57;;;;;;;0.50;0.50;;;;;;;15.58;100.00;99704.28;5005377;28;20419;-60
2023/08/26 05:22:22;;;;;;;0.28;0.28;;;;;;;15.46;100.00;99692.53;5005735;28;20038;-60
2023/08/26 05:24:48;;;;;;;0.20;0.20;;;;;;;15.54;100.00;99705.31;5005816;28;20466;-60
2023/08/26 05:27:16;;;;;;;0.20;0.20;;;;;;;15.54;100.00;99700.09;5005565;28;20027;-59
2023/08/26 05:29:42;;;;;;;0.30;0.30;;;;;;;15.54;100.00;99694.00;5005739;28;20022;-59
2023/08/26 05:32:07;;;;;;;0.30;0.30;;;;;;;15.58;100.00;99685.09;5005538;28;20033;-60
2023/08/26 05:34:33;;;;;;;0.85;0.85;;;;;;;15.58;100.00;99680.72;5005321;28;20081;-59
2023/08/26 05:36:58;;;;;;;0.30;0.30;;;;;;;15.60;100.00;99678.06;5005220;28;20085;-59
2023/08/26 05:39:24;;;;;;;0.20;0.20;;;;;;;15.57;100.00;99673.81;5005620;28;20026;-60
2023/08/26 05:41:49;;;;;;;0.20;0.20;;;;;;;15.51;100.00;99653.09;5005288;28;20030;-60
2023/08/26 05:44:15;;;;;;;0.50;0.50;;;;;;;15.60;100.00;99672.81;5005671;28;20022;-60
2023/08/26 05:46:40;;;;;;;0.30;0.30;;;;;;;15.56;100.00;99663.41;5005653;28;20098;-61
2023/08/26 05:49:05;;;;;;;0.20;0.20;;;;;;;15.63;100.00;99672.69;5005194;28;20535;-60
2023/08/26 05:51:31;;;;;;;0.30;0.30;;;;;;;15.65;100.00;99677.84;5005357;28;20030;-61
2023/08/26 05:53:56;;;;;;;0.35;0.35;;;;;;;15.69;100.00;99684.66;5005394;28;20491;-62
2023/08/26 05:56:22;;;;;;;0.30;0.30;;;;;;;15.70;100.00;99697.66;5005488;28;20037;-61
2023/08/26 05:58:47;;;;;;;0.20;0.20;;;;;;;15.74;100.00;99695.78;5005311;28;20027;-62
2023/08/26 06:01:12;;;;;;;0.35;0.35;;;;;;;15.79;100.00;99691.22;5005132;28;20042;-61
2023/08/26 06:03:38;;;;;;;0.30;0.30;;;;;;;15.80;100.00;99687.69;5004980;28;20030;-61
2023/08/26 06:06:03;;;;;;;0.30;0.30;;;;;;;15.81;100.00;99696.38;5005157;28;20042;-61
2023/08/26 06:08:29;;;;;;;0.40;0.40;;;;;;;15.79;100.00;99688.59;5005055;28;20541;-61
2023/08/26 06:10:55;;;;;;;0.30;0.30;;;;;;;15.82;100.00;99688.47;5005151;28;20038;-61
2023/08/26 06:13:20;;;;;;;0.30;0.30;;;;;;;15.82;100.00;99685.00;5005028;28;20085;-62
2023/08/26 06:15:53;;;;;;;0.20;0.20;;;;;;;15.85;100.00;99687.47;5003589;28;20114;-61
2023/08/26 06:18:18;;;;;;;0.20;0.20;;;;;;;15.89;100.00;99691.69;5005326;28;20026;-61
2023/08/26 06:20:43;;;;;;;0.20;0.20;;;;;;;15.89;100.00;99691.69;5004919;28;20387;-61
2023/08/26 06:23:09;;;;;;;0.22;0.22;;;;;;;15.91;100.00;99683.78;5005171;28;20065;-61
2023/08/26 06:25:34;;;;;;;0.20;0.20;;;;;;;15.92;100.00;99688.94;5005162;28;20026;-60
2023/08/26 06:27:59;;;;;;;0.25;0.25;;;;;;;15.96;100.00;99694.88;5005211;28;20022;-61
2023/08/26 06:30:25;;;;;;;0.30;0.30;;;;;;;15.97;100.00;99680.91;5004944;28;20026;-60
2023/08/26 06:32:50;;;;;;;0.20;0.20;;;;;;;15.96;100.00;99682.66;5004624;28;20045;-61
2023/08/26 06:35:16;;;;;;;0.20;0.20;;;;;;;16.00;100.00;99683.41;5004776;28;20061;-60
2023/08/26 06:37:41;;;;;;;0.25;0.25;;;;;;;16.00;100.00;99685.16;5004875;28;20052;-61
2023/08/26 06:40:07;;;;;;;0.30;0.30;;;;;;;16.01;100.00;99685.09;5005059;28;20028;-61
2023/08/26 06:42:32;;;;;;;0.30;0.30;;;;;;;16.03;100.00;99672.81;5005303;28;20031;-60
2023/08/26 06:44:59;;;;;;;0.30;0.30;;;;;;;16.01;100.00;99672.00;5005180;28;20210;-60
2023/08/26 06:47:24;;;;;;;0.20;0.20;;;;;;;16.04;100.00;99673.66;5005930;28;20022;-60
2023/08/26 06:49:49;;;;;;;0.20;0.20;;;;;;;16.05;100.00;99676.22;5007994;28;20106;-60
2023/08/26 06:52:15;;;;;;;0.30;0.30;;;;;;;16.06;100.00;99674.44;5008771;28;20065;-60
2023/08/26 06:54:40;;;;;;;0.20;0.20;;;;;;;16.08;100.00;99668.22;5008488;28;20029;-60
2023/08/26 06:57:06;;;;;;;0.20;0.20;;;;;;;16.04;100.00;99668.44;5008088;28;20113;-60
2023/08/26 06:59:31;;;;;;;0.30;0.30;;;;;;;16.09;100.00;99663.81;5008423;28;20102;-61
2023/08/26 07:01:56;;;;;;;0.30;0.30;;;;;;;16.03;100.00;99670.19;5008138;28;20082;-61
2023/08/26 07:04:24;;;;;;;0.63;0.63;;;;;;;16.06;100.00;99661.34;5008127;28;20037;-60
2023/08/26 07:06:50;;;;;;;0.20;0.20;;;;;;;15.95;100.00;99661.78;5008073;28;20034;-60
2023/08/26 07:09:16;;;;;;;0.20;0.20;;;;;;;16.01;100.00;99672.00;5008052;28;20030;-61
2023/08/26 07:11:41;;;;;;;0.20;0.20;;;;;;;16.02;100.00;99668.50;5008207;28;20033;-61
2023/08/26 07:14:06;;;;;;;0.30;0.30;;;;;;;16.05;100.00;99663.13;5007825;28;20022;-61
2023/08/26 07:16:32;;;;;;;0.20;0.20;;;;;;;16.09;100.00;99669.06;5007783;28;20387;-60
2023/08/26 07:18:57;;;;;;;0.47;0.47;;;;;;;16.13;100.00;99672.41;5007655;28;20034;-60
2023/08/26 07:21:23;;;;;;;0.20;0.20;;;;;;;16.16;100.00;99675.75;5007745;28;20054;-60
2023/08/26 07:23:48;;;;;;;0.52;0.52;;;;;;;16.18;100.00;99668.66;5008060;28;20065;-60
2023/08/26 07:26:13;;;;;;;0.28;0.28;;;;;;;16.19;100.00;99675.63;5008023;28;20105;-61
2023/08/26 07:28:39;;;;;;;0.30;0.30;;;;;;;16.15;100.00;99667.97;5007664;28;20023;-61
2023/08/26 07:31:05;;;;;;;0.20;0.20;;;;;;;16.18;100.00;99670.44;5007790;28;20486;-62
2023/08/26 07:33:32;;;;;;;0.20;0.20;;;;;;;16.12;100.00;99668.94;5007707;28;20026;-61
2023/08/26 07:36:06;;;;;;;0.20;0.20;;;;;;;16.14;100.00;99671.47;5007692;28;20030;-60
2023/08/26 07:38:31;;;;;;;0.30;0.30;;;;;;;16.07;100.00;99663.88;5007874;28;20363;-61
2023/08/26 07:40:57;;;;;;;0.20;0.20;;;;;;;16.13;100.00;99659.31;5007712;28;20493;-61
2023/08/26 07:43:22;;;;;;;0.20;0.20;;;;;;;16.11;100.00;99662.00;5007436;28;20097;-61
2023/08/26 07:45:47;;;;;;;0.20;0.20;;;;;;;16.10;100.00;99660.31;5007535;28;20037;-61
2023/08/26 07:48:13;;;;;;;0.20;0.20;;;;;;;16.12;100.00;99666.31;5007554;28;20042;-60
2023/08/26 07:50:38;;;;;;;0.20;0.20;;;;;;;16.06;100.00;99661.34;5007011;28;20442;-61
2023/08/26 07:53:05;;;;;;;0.30;0.30;;;;;;;16.04;100.00;99682.34;5007467;28;20038;-61
2023/08/26 07:55:31;;;;;;;0.20;0.20;;;;;;;16.02;100.00;99680.72;5007557;28;20049;-61
2023/08/26 07:57:56;;;;;;;0.20;0.20;;;;;;;15.94;100.00;99688.88;5006604;28;20022;-59
2023/08/26 08:00:22;;;;;;;0.20;0.20;;;;;;;15.86;100.00;99679.56;5007089;28;20046;-60
2023/08/26 08:02:47;;;;;;;0.20;0.20;;;;;;;15.82;100.00;99680.63;5007246;28;20033;-60
2023/08/26 08:05:13;;;;;;;0.20;0.20;;;;;;;15.79;100.00;99670.28;5006970;28;20349;-60
2023/08/26 08:07:38;;;;;;;0.20;0.20;;;;;;;15.81;100.00;99684.16;5006933;28;20037;-59
2023/08/26 08:10:04;;;;;;;0.20;0.20;;;;;;;15.83;100.00;99684.09;5007131;28;20037;-60
2023/08/26 08:12:29;;;;;;;0.20;0.20;;;;;;;15.83;100.00;99684.94;5007155;28;20033;-60
2023/08/26 08:14:55;;;;;;;0.20;0.20;;;;;;;15.83;100.00;99687.56;5006672;28;20070;-60
2023/08/26 08:17:20;;;;;;;0.20;0.20;;;;;;;15.85;100.00;99682.25;5006718;28;20049;-62
2023/08/26 08:19:45;;;;;;;0.20;0.20;;;;;;;15.86;100.00;99681.34;5006540;28;20022;-62
2023/08/26 08:22:16;;;;;;;0.20;0.20;;;;;;;15.90;100.00;99684.66;5007234;28;20042;-62
2023/08/26 08:24:42;;;;;;;0.90;0.73;;;;;;;15.92;100.00;99682.84;5005475;28;20033;-61
2023/08/26 08:27:08;;;;;;;0.20;0.20;;;;;;;15.90;100.00;99668.97;5021988;28;20015;-61
2023/08/26 08:29:34;;;;;;;0.30;0.30;;;;;;;15.90;100.00;99674.19;5021976;28;20019;-61
2023/08/26 08:31:59;;;;;;;0.20;0.20;;;;;;;15.86;100.00;99676.13;5005537;28;20058;-61
2023/08/26 08:34:24;;;;;;;0.20;0.20;;;;;;;15.84;100.00;99675.31;5006347;28;20085;-63
2023/08/26 08:36:50;;;;;;;0.25;0.25;;;;;;;15.80;100.00;99673.75;5006318;28;20026;-61
2023/08/26 08:39:15;;;;;;;0.20;0.20;;;;;;;15.71;100.00;99668.00;5006521;28;20053;-61
2023/08/26 08:41:41;;;;;;;0.20;0.20;;;;;;;15.72;100.00;99674.91;5006500;28;20069;-63
2023/08/26 08:44:13;;;;;;;0.35;0.35;;;;;;;15.68;100.00;99670.75;5006265;28;20030;-62
2023/08/26 08:46:39;;;;;;;0.30;0.30;;;;;;;15.68;100.00;99665.50;5006332;28;20033;-62
2023/08/26 08:49:05;;;;;;;0.20;0.20;;;;;;;15.66;100.00;99669.09;5006389;28;20030;-62
2023/08/26 08:51:31;;;;;;;0.20;0.20;;;;;;;15.65;100.00;99670.00;5006197;28;20054;-61
2023/08/26 08:53:58;;;;;;;0.20;0.20;;;;;;;15.60;100.00;99671.06;5006436;28;20018;-62
2023/08/26 08:56:25;;;;;;;0.20;0.20;;;;;;;15.59;100.00;99671.97;5005883;28;20038;-63
2023/08/26 08:58:52;;;;;;;0.20;0.20;;;;;;;15.61;100.00;99675.38;5006135;28;20049;-62
2023/08/26 09:01:20;;;;;;;0.50;0.32;;;;;;;15.61;100.00;99679.75;5006007;28;20018;-62
2023/08/26 09:03:47;;;;;;;0.20;0.20;;;;;;;15.65;100.00;99678.72;5005944;28;20030;-63
2023/08/26 09:06:13;;;;;;;0.20;0.20;;;;;;;15.54;100.00;99684.41;5005571;28;20648;-63
2023/08/26 09:08:39;;;;;;;0.20;0.20;;;;;;;15.60;100.00;99696.38;5005869;28;20030;-61
2023/08/26 09:11:05;;;;;;;0.20;0.20;;;;;;;15.56;100.00;99690.41;5005485;28;20077;-62
2023/08/26 09:13:30;;;;;;;0.20;0.20;;;;;;;15.62;100.00;99691.94;5005819;28;20034;-63
2023/08/26 09:15:56;;;;;;;0.20;0.20;;;;;;;15.60;100.00;99705.06;5005994;28;20074;-63
2023/08/26 09:18:22;;;;;;;0.20;0.20;;;;;;;15.56;100.00;99702.66;5005319;28;20026;-63
2023/08/26 09:20:47;;;;;;;0.20;0.20;;;;;;;15.57;100.00;99699.09;5005497;28;20033;-63
2023/08/26 09:23:13;;;;;;;0.22;0.22;;;;;;;15.57;100.00;99699.09;5005843;28;20082;-63
2023/08/26 09:25:49;;;;;;;0.20;0.20;;;;;;;15.56;100.00;99703.47;5005549;28;20026;-63
2023/08/26 09:28:15;;;;;;;2.17;1.52;;;;;;;15.57;100.00;99705.19;5005714;28;20018;-62
2023/08/26 09:30:40;;;;;;;0.20;0.20;;;;;;;15.56;100.00;99707.88;5005589;28;20096;-62
2023/08/26 09:33:13;;;;;;;0.20;0.20;;;;;;;15.55;100.00;99709.63;5005771;28;20057;-62
2023/08/26 09:35:47;;;;;;;0.20;0.20;;;;;;;15.49;100.00;99707.28;5005346;28;20237;-62
2023/08/26 09:38:12;;;;;;;0.20;0.20;;;;;;;15.47;100.00;99703.84;5005553;28;20474;-61
2023/08/26 09:40:39;;;;;;;0.20;0.20;;;;;;;15.49;100.00;99713.31;5005427;28;20034;-62
2023/08/26 09:43:06;;;;;;;0.30;0.30;;;;;;;15.46;100.00;99707.41;5005831;28;20026;-61
2023/08/26 09:45:36;;;;;;;1.33;0.88;;;;;;;15.44;100.00;99709.22;5005434;28;20022;-62
2023/08/26 09:48:02;;;;;;;0.20;0.20;;;;;;;15.39;100.00;99705.91;5005695;28;20014;-62
2023/08/26 09:50:31;;;;;;;0.20;0.20;;;;;;;15.28;100.00;99699.38;5005219;28;20117;-61
2023/08/26 09:52:58;;;;;;;1.45;0.63;;;;;;;15.32;100.00;99700.94;5005799;28;20090;-61
2023/08/26 09:55:23;;;;;;;0.20;0.20;;;;;;;15.34;100.00;99706.97;5005914;28;20034;-60
2023/08/26 09:57:49;;;;;;;0.20;0.20;;;;;;;15.33;100.00;99701.78;5005090;28;20030;-62
2023/08/26 10:00:20;;;;;;;0.20;0.20;;;;;;;15.33;100.00;99702.66;5005364;28;20045;-62
2023/08/26 10:02:50;;;;;;;0.40;0.40;;;;;;;15.40;100.00;99697.19;5005008;28;20034;-60
2023/08/26 10:05:18;;;;;;;0.20;0.20;;;;;;;15.44;100.00;99711.81;5005074;28;20026;-61
2023/08/26 10:07:50;;;;;;;0.20;0.20;;;;;;;15.46;100.00;99707.41;5005185;28;20082;-62
2023/08/26 10:10:24;;;;;;;0.20;0.20;;;;;;;15.50;100.00;99708.97;5005590;28;20033;-62
2023/08/26 10:12:54;;;;;;;0.20;0.20;;;;;;;15.52;100.00;99716.75;5005109;28;20022;-61
2023/08/26 10:15:23;;;;;;;0.20;0.20;;;;;;;15.54;100.00;99718.41;5004946;28;20043;-62
2023/08/26 10:17:52;;;;;;;0.20;0.20;;;;;;;15.56;100.00;99719.16;5005393;28;20026;-61
2023/08/26 10:20:18;;;;;;;0.20;0.20;;;;;;;15.61;100.00;99717.22;5005046;28;20045;-62
2023/08/26 10:22:43;;;;;;;0.20;0.20;;;;;;;15.64;100.00;99718.84;5008525;28;20109;-61
2023/08/26 10:25:10;;;;;;;0.20;0.20;;;;;;;15.77;100.00;99727.06;5009265;28;20033;-61
2023/08/26 10:27:36;;;;;;;0.20;0.20;;;;;;;15.85;100.00;99729.34;5009253;28;20078;-62
2023/08/26 10:30:04;;;;;;;0.20;0.20;;;;;;;15.80;100.00;99729.56;5009073;28;20033;-61
2023/08/26 10:32:30;;;;;;;0.20;0.20;;;;;;;15.82;100.00;99732.97;5007562;28;20026;-61
2023/08/26 10:34:58;;;;;;;0.20;0.20;;;;;;;15.83;100.00;99726.81;5008844;28;20023;-61
2023/08/26 10:37:28;;;;;;;0.20;0.20;;;;;;;15.86;100.00;99736.31;5008672;28;20471;-61
2023/08/26 10:39:55;;;;;;;0.20;0.20;;;;;;;15.83;100.00;99726.81;5008634;28;20029;-60
2023/08/26 10:42:22;;;;;;;0.20;0.20;;;;;;;15.77;100.00;99732.28;5008656;28;20118;-61
2023/08/26 10:44:55;;;;;;;0.20;0.20;;;;;;;15.76;100.00;99735.84;5008696;28;20022;-61
2023/08/26 10:47:38;;;;;;;0.20;0.20;;;;;;;15.79;100.00;99730.47;5008701;28;20019;-61
2023/08/26 10:50:18;;;;;;;0.20;0.20;;;;;;;15.80;100.00;99733.97;5008497;28;20026;-61
2023/08/26 10:52:44;;;;;;;0.20;0.20;;;;;;;15.78;100.00;99734.03;5008469;28;20034;-61
2023/08/26 10:55:20;;;;;;;0.20;0.20;;;;;;;15.74;100.00;99735.91;5008484;28;20054;-60
2023/08/26 10:58:08;;;;;;;0.20;0.20;;;;;;;15.76;100.00;99725.38;5008411;28;20045;-61
2023/08/26 11:00:34;;;;;;;0.20;0.20;;;;;;;15.73;100.00;99734.19;5008764;28;20019;-62
2023/08/26 11:03:03;;;;;;;0.40;0.40;;;;;;;15.61;100.00;99721.59;5008519;28;20085;-61
2023/08/26 11:05:29;;;;;;;0.20;0.20;;;;;;;15.65;100.00;99732.81;5008019;28;20029;-60
2023/08/26 11:07:56;;;;;;;0.20;0.20;;;;;;;15.59;100.00;99726.91;5008246;28;20014;-60
2023/08/26 11:10:32;;;;;;;0.20;0.20;;;;;;;15.59;100.00;99729.50;5008286;28;20476;-61
2023/08/26 11:12:58;;;;;;;0.20;0.20;;;;;;;15.60;100.00;99726.00;5008350;28;20463;-61
2023/08/26 11:15:24;;;;;;;0.20;0.20;;;;;;;15.59;100.00;99726.06;5008115;28;20057;-60
2023/08/26 11:17:49;;;;;;;0.20;0.20;;;;;;;15.56;100.00;99724.41;5008071;28;20031;-61
2023/08/26 11:20:17;;;;;;;0.20;0.20;;;;;;;15.55;100.00;99721.84;5007831;28;20274;-61
2023/08/26 11:22:43;;;;;;;0.20;0.20;;;;;;;15.54;100.00;99722.78;5008023;28;20466;-62